KPRO

Perry Municipal Airport

Perry, Iowa, USA
METAR KPRO 231055Z AUTO 12007KT 10SM CLR 18/17 A3008 RMK AO2 T01750169
Observed Flight Rules
May-23 @ 10:55 UTC (17 minutes ago) Visual Flight Rules
Wind Visibility Clouds
120° at 7 knots 10 miles
  • Clear skies
Temperatures Readings
Current 18°C / 64°F
Dewpoint 17°C / 63°F
Humidity 94%
Altimeter 30.08" Hg
Pressure 1019 hPa
Elevation 308
METAR KPRO 231055Z AUTO 12007KT 10SM CLR 18/17 A3008 RMK AO2 T01750169
Observed Flight Rules
May-23 @ 10:55 UTC
(17 minutes ago)
VFR
Wind Visibility
120° at 7 knots 10 miles
Clouds
  • Clear skies
Temperature Dewpoint
18°C / 64°F 17°C / 63°F
Humidity Altimeter Pressure
94% 30.08" Hg 1019 hPa